Time;durP1;ratioP1;P1;durP2;ratioP2;P2;SDS_P1;SDS_P2;PMS_P1;PMS_P2;Temp;Humidity;BMP_temperature;BMP_pressure;BME280_temperature;BME280_humidity;BME280_pressure;Samples;Min_cycle;Max_cycle;Signal;HPM_P1;HPM_P2
2022/04/08 00:00:09;;;;;;;5.88;1.65;;;;;;;15.86;51.62;99791.41;5048603;28;20242;-87
2022/04/08 00:02:39;;;;;;;7.82;1.92;;;;;;;16.18;51.83;99853.50;5030386;28;20053;-88
2022/04/08 00:05:07;;;;;;;6.40;1.73;;;;;;;15.00;52.06;99662.91;5047789;28;20052;-88
2022/04/08 00:07:37;;;;;;;10.48;2.10;;;;;;;16.07;51.96;99836.09;5029522;28;20064;-87
2022/04/08 00:10:07;;;;;;;9.38;1.95;;;;;;;15.11;51.35;99665.06;5047921;28;20060;-87
2022/04/08 00:12:33;;;;;;;2.83;1.30;;;;;;;15.12;51.71;99672.09;5047618;28;20049;-88
2022/04/08 00:15:00;;;;;;;6.45;1.98;;;;;;;15.09;51.93;99676.97;5048737;28;20049;-89
2022/04/08 00:17:27;;;;;;;3.35;1.77;;;;;;;15.04;52.08;99669.50;5047564;28;20406;-88
2022/04/08 00:19:54;;;;;;;3.85;1.50;;;;;;;14.98;52.22;99656.91;5030891;28;20151;-87
2022/04/08 00:22:23;;;;;;;4.10;1.80;;;;;;;15.60;51.89;99755.28;5012801;28;20045;-87
2022/04/08 00:24:58;;;;;;;4.40;1.60;;;;;;;16.36;50.91;99829.78;5027671;28;20049;-86
2022/04/08 00:27:24;;;;;;;3.92;1.42;;;;;;;15.63;51.24;99737.22;5009577;28;20060;-87
2022/04/08 00:29:51;;;;;;;3.90;1.58;;;;;;;15.51;51.80;99729.69;5009937;28;20510;-88
2022/04/08 00:32:18;;;;;;;5.68;1.83;;;;;;;16.10;50.98;99802.78;5010559;28;20601;-89
2022/04/08 00:34:44;;;;;;;3.40;1.75;;;;;;;16.00;51.56;99809.25;5010602;28;20510;-89
2022/04/08 00:37:11;;;;;;;3.70;1.42;;;;;;;16.60;51.51;99908.06;5028197;28;20053;-88
2022/04/08 00:39:38;;;;;;;4.28;1.55;;;;;;;15.16;51.83;99680.56;5028346;28;20107;-88
2022/04/08 00:42:06;;;;;;;3.47;1.73;;;;;;;15.62;51.95;99759.63;5010472;28;20054;-89
2022/04/08 00:44:33;;;;;;;3.65;1.35;;;;;;;16.62;51.92;99930.16;5012776;28;20049;-88
2022/04/08 00:46:59;;;;;;;4.80;1.50;;;;;;;15.37;51.75;99706.50;5029619;28;20053;-88
2022/04/08 00:49:26;;;;;;;3.63;1.83;;;;;;;14.85;52.19;99654.06;5029396;28;20098;-87
2022/04/08 00:51:53;;;;;;;5.78;1.90;;;;;;;15.88;51.45;99773.31;5028670;28;20048;-89
2022/04/08 00:54:20;;;;;;;4.43;1.70;;;;;;;15.62;51.34;99740.91;5010578;28;20181;-88
2022/04/08 00:56:48;;;;;;;3.42;1.58;;;;;;;15.50;52.19;99744.06;5010945;28;20089;-87
2022/04/08 00:59:16;;;;;;;1.77;1.35;;;;;;;16.41;51.36;99886.28;5028243;28;20057;-88
2022/04/08 01:01:42;;;;;;;2.92;1.35;;;;;;;16.02;51.93;99828.66;5028336;28;20065;-88
2022/04/08 01:04:09;;;;;;;4.47;1.60;;;;;;;15.86;51.40;99786.06;5028227;28;20057;-88
2022/04/08 01:06:36;;;;;;;5.65;1.50;;;;;;;16.02;52.18;99839.34;5028483;28;20063;-89
2022/04/08 01:09:03;;;;;;;4.55;1.90;;;;;;;15.23;51.75;99704.69;5028073;28;20053;-88
2022/04/08 01:11:30;;;;;;;2.88;1.42;;;;;;;15.36;51.54;99724.41;5010997;28;20108;-87
2022/04/08 01:14:09;;;;;;;10.15;1.77;;;;;;;15.58;51.70;99773.41;5037608;28;20057;-88
2022/04/08 01:16:36;;;;;;;4.60;1.75;;;;;;;15.84;51.66;99820.22;5021866;28;20045;-87
2022/04/08 01:19:03;;;;;;;7.60;1.90;;;;;;;15.22;51.42;99700.34;5045645;28;20076;-87
2022/04/08 01:21:31;;;;;;;7.43;1.70;;;;;;;15.57;51.49;99779.75;5052170;28;20110;-88
2022/04/08 01:23:59;;;;;;;3.72;1.73;;;;;;;16.54;52.02;99946.38;5055737;28;20101;-89
2022/04/08 01:26:27;;;;;;;6.32;1.95;;;;;;;15.43;52.05;99769.91;5056931;28;20362;-87
2022/04/08 01:28:55;;;;;;;5.72;1.90;;;;;;;15.45;52.06;99759.03;5053930;28;20437;-87
2022/04/08 01:31:29;;;;;;;4.65;1.90;;;;;;;15.04;52.22;99708.78;5053795;28;20098;-88
2022/04/08 01:33:56;;;;;;;4.70;1.80;;;;;;;14.75;52.11;99673.91;5039455;28;20088;-88
2022/04/08 01:36:23;;;;;;;4.63;1.63;;;;;;;16.16;52.09;99893.03;5038521;28;20071;-88
2022/04/08 01:38:50;;;;;;;4.45;1.70;;;;;;;15.69;52.30;99816.72;5036625;28;20053;-89
2022/04/08 01:41:16;;;;;;;3.03;1.73;;;;;;;15.80;52.04;99830.47;5054836;28;20059;-88
2022/04/08 01:43:44;;;;;;;4.28;2.17;;;;;;;15.00;52.28;99716.38;5035123;28;20471;-88
2022/04/08 01:46:11;;;;;;;4.75;1.98;;;;;;;15.50;51.64;99772.69;5034748;28;20478;-88
2022/04/08 01:48:38;;;;;;;7.68;2.35;;;;;;;15.24;52.32;99749.13;5033751;28;20478;-88
2022/04/08 01:51:05;;;;;;;6.03;2.13;;;;;;;15.76;51.77;99815.00;5033145;28;20052;-88
2022/04/08 01:53:32;;;;;;;5.18;2.13;;;;;;;15.68;51.80;99813.22;5033089;28;20053;-88
2022/04/08 01:55:58;;;;;;;6.50;2.10;;;;;;;15.51;51.95;99804.59;5033674;28;20502;-88
2022/04/08 01:58:28;;;;;;;6.30;2.55;;;;;;;14.39;52.28;99632.91;5050873;28;20060;-89
2022/04/08 02:00:55;;;;;;;6.63;2.33;;;;;;;15.72;51.92;99846.63;5033267;28;20553;-89
2022/04/08 02:03:22;;;;;;;3.85;1.77;;;;;;;15.73;51.16;99815.38;5050071;28;20603;-88
2022/04/08 02:05:48;;;;;;;7.82;2.35;;;;;;;16.62;50.64;99919.44;5032868;28;20049;-88
2022/04/08 02:08:15;;;;;;;4.43;1.88;;;;;;;16.14;50.18;99846.84;5050235;28;20048;-88
2022/04/08 02:10:42;;;;;;;5.13;2.20;;;;;;;15.37;50.08;99739.41;5033249;28;20048;-88
2022/04/08 02:13:09;;;;;;;7.97;2.03;;;;;;;16.13;50.09;99840.69;5050444;28;20048;-87
2022/04/08 02:15:35;;;;;;;6.53;2.00;;;;;;;15.97;50.54;99840.91;5032385;28;20057;-88
2022/04/08 02:18:03;;;;;;;6.68;2.15;;;;;;;16.41;51.32;99939.88;5049677;28;20049;-89
2022/04/08 02:20:31;;;;;;;5.70;2.00;;;;;;;14.84;51.26;99688.00;5046113;28;20489;-87
2022/04/08 02:22:59;;;;;;;5.07;2.08;;;;;;;15.86;51.37;99869.03;5029579;28;20352;-89
2022/04/08 02:25:27;;;;;;;10.23;2.30;;;;;;;14.95;51.13;99692.00;5030282;28;20573;-89
2022/04/08 02:27:54;;;;;;;8.05;2.00;;;;;;;15.07;51.27;99749.34;5028694;28;20052;-89
2022/04/08 02:30:21;;;;;;;6.07;2.47;;;;;;;15.98;51.45;99906.84;5012568;28;20219;-88
2022/04/08 02:32:48;;;;;;;5.47;2.30;;;;;;;14.91;51.36;99736.19;5011744;28;20103;-88
2022/04/08 02:35:15;;;;;;;6.63;1.85;;;;;;;16.24;51.65;99957.19;5029516;28;20470;-87
2022/04/08 02:37:42;;;;;;;5.72;2.42;;;;;;;15.65;52.22;99874.28;5012042;28;20053;-88
2022/04/08 02:40:09;;;;;;;3.60;1.70;;;;;;;14.87;52.21;99758.94;5029834;28;20057;-88
2022/04/08 02:42:36;;;;;;;6.00;2.50;;;;;;;14.55;52.14;99702.19;5012627;28;20072;-87
2022/04/08 02:45:03;;;;;;;5.68;2.08;;;;;;;15.10;52.09;99775.69;5012934;28;20495;-88
2022/04/08 02:47:30;;;;;;;6.78;2.50;;;;;;;15.96;52.11;99920.41;5012152;28;20132;-87
2022/04/08 02:49:57;;;;;;;6.63;2.20;;;;;;;15.29;51.77;99789.50;5029954;28;20088;-88
2022/04/08 02:52:23;;;;;;;6.57;1.95;;;;;;;15.98;52.36;99912.19;5034480;28;20057;-87
2022/04/08 02:54:50;;;;;;;3.22;2.08;;;;;;;14.74;51.90;99693.63;5017209;28;20097;-87
2022/04/08 02:57:17;;;;;;;5.97;2.15;;;;;;;15.34;51.87;99798.63;5034605;28;20092;-87
2022/04/08 02:59:43;;;;;;;7.28;2.33;;;;;;;15.36;52.70;99827.84;5023618;28;20053;-86
2022/04/08 03:02:10;;;;;;;5.43;2.15;;;;;;;14.87;52.27;99716.19;5031951;28;20053;-87
2022/04/08 03:04:37;;;;;;;6.18;2.13;;;;;;;15.59;52.32;99852.63;5013751;28;20076;-87
2022/04/08 03:07:04;;;;;;;8.63;2.15;;;;;;;15.57;52.78;99853.84;5030396;28;20077;-88
2022/04/08 03:09:31;;;;;;;6.30;1.80;;;;;;;15.13;52.63;99778.00;5012642;28;20103;-88
2022/04/08 03:11:57;;;;;;;4.13;2.17;;;;;;;16.09;52.88;99945.66;5029348;28;20049;-89
2022/04/08 03:14:24;;;;;;;6.18;2.28;;;;;;;15.45;52.98;99840.09;5011728;28;20107;-89
2022/04/08 03:16:51;;;;;;;6.47;2.38;;;;;;;15.42;53.27;99840.47;5011363;28;20495;-88
2022/04/08 03:19:18;;;;;;;5.53;2.30;;;;;;;15.45;53.06;99837.44;5029115;28;20041;-89
2022/04/08 03:21:45;;;;;;;6.22;2.40;;;;;;;16.07;53.73;99947.69;5023551;28;20437;-88
2022/04/08 03:24:12;;;;;;;7.07;2.38;;;;;;;14.48;53.70;99707.41;5030851;28;20045;-88
2022/04/08 03:26:43;;;;;;;5.38;2.00;;;;;;;15.14;53.63;99814.41;5048452;28;20388;-88
2022/04/08 03:29:10;;;;;;;6.07;2.22;;;;;;;14.71;54.05;99757.28;5030206;28;20411;-87
2022/04/08 03:31:36;;;;;;;4.05;1.75;;;;;;;14.39;53.79;99705.00;5048410;28;20057;-88
2022/04/08 03:34:03;;;;;;;4.30;2.22;;;;;;;15.51;53.62;99868.78;5030819;28;20056;-88
2022/04/08 03:36:30;;;;;;;5.28;2.20;;;;;;;15.22;53.55;99828.69;5030714;28;20048;-89
2022/04/08 03:38:57;;;;;;;5.43;2.25;;;;;;;14.29;53.82;99684.72;5030017;28;20061;-88
2022/04/08 03:41:23;;;;;;;4.90;2.30;;;;;;;14.92;54.04;99785.94;5048198;28;20102;-88
2022/04/08 03:43:50;;;;;;;7.75;2.90;;;;;;;15.48;53.96;99877.16;5030431;28;20041;-87
2022/04/08 03:46:17;;;;;;;5.15;2.38;;;;;;;15.41;53.97;99873.56;5035715;28;20470;-87
2022/04/08 03:48:44;;;;;;;5.93;2.35;;;;;;;15.52;53.55;99867.75;5053875;28;20056;-88
2022/04/08 03:51:10;;;;;;;6.53;2.13;;;;;;;16.16;53.88;99970.69;5052690;28;20292;-88
2022/04/08 03:53:37;;;;;;;6.10;1.80;;;;;;;16.13;53.58;99952.31;5035126;28;20380;-88
2022/04/08 03:56:05;;;;;;;6.65;2.38;;;;;;;15.54;53.76;99873.75;5050772;28;20057;-88
2022/04/08 03:58:33;;;;;;;7.40;2.22;;;;;;;15.25;53.67;99825.66;5051739;28;20049;-88
2022/04/08 04:01:00;;;;;;;3.80;1.55;;;;;;;15.96;53.56;99939.16;5033199;28;20057;-88
2022/04/08 04:03:26;;;;;;;2.92;1.80;;;;;;;15.09;53.39;99795.41;5030595;28;20044;-88
2022/04/08 04:05:53;;;;;;;3.55;2.10;;;;;;;16.24;53.46;99949.16;5048536;28;20053;-88
2022/04/08 04:08:20;;;;;;;6.05;2.00;;;;;;;15.38;52.71;99785.69;5031140;28;20146;-88
2022/04/08 04:10:48;;;;;;;5.38;1.92;;;;;;;15.24;52.99;99743.78;5031761;28;20315;-89
2022/04/08 04:13:15;;;;;;;5.25;2.03;;;;;;;14.62;53.00;99678.25;5030517;28;20053;-87
2022/04/08 04:15:42;;;;;;;4.13;1.75;;;;;;;16.39;53.09;99949.94;5031560;28;20044;-88
2022/04/08 04:18:09;;;;;;;4.15;1.80;;;;;;;16.47;52.79;99942.78;5054644;28;20525;-86
2022/04/08 04:20:36;;;;;;;4.07;1.95;;;;;;;16.52;52.49;99956.44;5039712;28;20143;-87
2022/04/08 04:23:03;;;;;;;5.15;2.17;;;;;;;16.08;52.64;99877.91;5035394;28;20041;-87
2022/04/08 04:25:30;;;;;;;4.97;2.00;;;;;;;16.26;52.91;99924.84;5029338;28;20053;-87
2022/04/08 04:27:59;;;;;;;4.07;2.13;;;;;;;16.43;52.95;99964.63;5048534;28;20502;-88
2022/04/08 04:30:27;;;;;;;6.90;1.92;;;;;;;15.77;53.11;99862.13;5031460;28;20501;-89
2022/04/08 04:32:55;;;;;;;2.40;1.83;;;;;;;15.38;53.10;99793.72;5048771;28;20238;-88
2022/04/08 04:35:22;;;;;;;4.68;1.80;;;;;;;15.52;52.58;99805.41;5030694;28;20444;-89
2022/04/08 04:37:49;;;;;;;7.35;2.45;;;;;;;16.45;53.18;99957.19;5030609;28;20047;-89
2022/04/08 04:40:16;;;;;;;4.00;1.50;;;;;;;16.15;52.94;99891.38;5018552;28;20053;-88
2022/04/08 04:42:42;;;;;;;5.38;1.95;;;;;;;16.17;52.72;99875.97;5028527;28;20122;-88
2022/04/08 04:45:11;;;;;;;2.67;1.50;;;;;;;15.87;52.62;99848.44;5027749;28;20056;-89
2022/04/08 04:47:38;;;;;;;3.22;1.80;;;;;;;15.79;52.72;99838.69;5045599;28;20051;-89
2022/04/08 04:50:05;;;;;;;9.18;1.75;;;;;;;16.48;53.02;99976.59;5045242;28;20053;-87
2022/04/08 04:52:32;;;;;;;7.22;1.92;;;;;;;16.05;53.21;99893.53;5047561;28;20076;-88
2022/04/08 04:54:59;;;;;;;2.22;1.50;;;;;;;16.55;53.01;99950.69;5031495;28;20159;-88
2022/04/08 04:57:26;;;;;;;4.00;1.55;;;;;;;16.58;52.94;99956.53;5031204;28;20055;-88
2022/04/08 04:59:53;;;;;;;2.40;1.73;;;;;;;16.47;53.44;99954.34;5032058;28;20045;-86
2022/04/08 05:02:19;;;;;;;7.47;2.00;;;;;;;16.33;53.46;99931.94;5031790;28;20064;-89
2022/04/08 05:04:46;;;;;;;6.70;2.20;;;;;;;16.22;53.73;99929.78;5035158;28;20184;-86
2022/04/08 05:07:44;;;;;;;5.60;2.00;;;;;;;15.86;53.85;99885.09;5029924;28;20102;-87
2022/04/08 05:10:12;;;;;;;5.15;1.85;;;;;;;15.04;53.82;99738.19;5054081;28;20479;-86
2022/04/08 05:12:39;;;;;;;3.17;1.45;;;;;;;15.82;53.82;99859.72;5052144;28;20106;-87
2022/04/08 05:15:12;;;;;;;9.80;1.88;;;;;;;16.65;53.15;99976.16;5012425;28;20049;-88
2022/04/08 05:17:39;;;;;;;4.65;1.67;;;;;;;15.29;53.06;99714.63;5011929;28;20057;-88
2022/04/08 05:20:06;;;;;;;5.00;1.63;;;;;;;15.86;53.25;99812.81;5012764;28;20480;-89
2022/04/08 05:22:34;;;;;;;2.47;1.60;;;;;;;16.25;52.78;99854.41;5049858;28;20048;-88
2022/04/08 05:25:02;;;;;;;1.88;1.42;;;;;;;16.45;52.58;99867.97;5030487;28;20057;-86
2022/04/08 05:27:36;;;;;;;6.30;1.60;;;;;;;16.14;53.26;99847.72;5029627;28;20057;-89
2022/04/08 05:30:05;;;;;;;2.85;1.30;;;;;;;15.57;53.64;99776.25;5011870;28;20423;-88
2022/04/08 05:32:34;;;;;;;5.20;1.70;;;;;;;15.31;53.45;99689.34;5012747;28;20495;-87
2022/04/08 05:35:01;;;;;;;8.65;1.50;;;;;;;15.40;53.60;99706.13;5033158;28;20157;-87
2022/04/08 05:37:28;;;;;;;3.85;1.33;;;;;;;16.10;53.91;99821.50;5012654;28;20055;-88
2022/04/08 05:39:55;;;;;;;5.63;1.40;;;;;;;16.10;54.07;99850.97;5013315;28;20049;-85
2022/04/08 05:42:28;;;;;;;3.42;1.27;;;;;;;17.10;53.54;99965.25;5012995;28;20057;-89
2022/04/08 05:44:55;;;;;;;4.63;1.38;;;;;;;16.60;53.83;99906.25;5011125;28;20050;-87
2022/04/08 05:47:27;;;;;;;1.65;1.00;;;;;;;17.03;53.73;99986.63;5010705;28;20153;-89
2022/04/08 05:49:58;;;;;;;4.53;1.90;;;;;;;15.52;54.07;99736.69;4995420;28;20052;-88
2022/04/08 05:52:26;;;;;;;2.72;1.20;;;;;;;15.68;53.74;99750.84;5036765;28;20120;-87
2022/04/08 05:54:55;;;;;;;3.05;1.20;;;;;;;17.12;53.75;99973.94;5016778;28;20053;-88
2022/04/08 05:57:23;;;;;;;4.90;1.58;;;;;;;16.15;53.46;99803.84;5030652;28;20152;-88
2022/04/08 05:59:50;;;;;;;7.20;1.30;;;;;;;17.07;53.13;99966.47;5030009;28;20080;-88
2022/04/08 06:02:17;;;;;;;3.65;1.50;;;;;;;17.12;52.75;99946.28;5010751;28;20050;-87
2022/04/08 06:04:44;;;;;;;5.43;1.48;;;;;;;16.37;52.48;99828.75;5010791;28;20056;-88
2022/04/08 06:07:10;;;;;;;3.50;1.00;;;;;;;16.78;52.35;99854.88;5011615;28;20765;-88
2022/04/08 06:09:37;;;;;;;4.57;1.55;;;;;;;17.41;52.44;99974.75;5010762;28;20503;-90
2022/04/08 06:12:04;;;;;;;3.20;1.70;;;;;;;17.60;52.41;99987.47;5018821;28;20144;-88
2022/04/08 06:14:33;;;;;;;5.38;1.45;;;;;;;17.48;52.51;99999.78;5030976;28;20465;-89
2022/04/08 06:17:00;;;;;;;6.70;1.90;;;;;;;17.23;51.51;99911.72;5030409;28;20045;-88
2022/04/08 06:19:27;;;;;;;4.43;1.35;;;;;;;16.32;52.11;99764.22;5029693;28;20494;-88
2022/04/08 06:21:54;;;;;;;2.58;1.50;;;;;;;16.98;51.71;99881.00;5016864;28;20173;-89
2022/04/08 06:24:21;;;;;;;4.50;1.77;;;;;;;17.20;51.46;99919.31;5010838;28;20042;-90
2022/04/08 06:26:48;;;;;;;9.25;1.85;;;;;;;17.80;51.47;99994.81;5010341;28;20110;-91
2022/04/08 06:29:14;;;;;;;2.67;1.42;;;;;;;17.28;51.44;99917.31;5009872;28;20478;-89
2022/04/08 06:31:44;;;;;;;4.32;1.55;;;;;;;16.95;51.31;99835.81;5010944;28;20053;-89
2022/04/08 06:34:11;;;;;;;10.48;1.60;;;;;;;16.94;51.21;99836.81;5027988;28;20045;-89
2022/04/08 06:36:40;;;;;;;3.90;1.30;;;;;;;17.33;51.56;99916.72;5028315;28;20052;-87
2022/04/08 06:39:09;;;;;;;4.05;1.48;;;;;;;16.74;51.35;99805.31;5011126;28;20060;-88
2022/04/08 06:41:35;;;;;;;8.82;1.90;;;;;;;17.49;51.18;99916.38;5012812;28;20049;-89
2022/04/08 06:44:02;;;;;;;6.47;1.40;;;;;;;17.42;50.69;99887.88;5018492;28;20422;-86
2022/04/08 06:46:32;;;;;;;4.15;1.15;;;;;;;17.70;50.04;99907.41;5030218;28;20053;-84
2022/04/08 06:49:02;;;;;;;;;;;;;;;18.25;50.41;100004.13;5031330;28;20056;-86
2022/04/08 06:51:35;;;;;;;7.18;1.77;;;;;;;17.26;50.14;99854.16;5030562;28;19920;-89
2022/04/08 06:54:02;;;;;;;2.58;1.70;;;;;;;18.21;50.16;100010.13;5048235;28;20045;-87
2022/04/08 06:56:32;;;;;;;3.42;1.35;;;;;;;18.33;49.84;100014.72;5030677;28;20057;-84
2022/04/08 06:58:59;;;;;;;9.95;1.83;;;;;;;18.17;50.06;99982.81;5030312;28;20045;-85
2022/04/08 07:01:26;;;;;;;2.95;1.05;;;;;;;18.43;49.75;100010.81;5030159;28;20604;-85
2022/04/08 07:03:53;;;;;;;7.57;1.45;;;;;;;18.23;50.46;99997.28;5029746;28;20077;-84
2022/04/08 07:06:20;;;;;;;3.50;1.10;;;;;;;18.25;50.42;99989.84;5029786;28;20392;-85
2022/04/08 07:08:46;;;;;;;3.20;1.38;;;;;;;18.22;50.22;99979.53;5048174;28;20127;-85
2022/04/08 07:11:14;;;;;;;4.53;1.40;;;;;;;18.16;50.08;99975.78;5025117;28;20049;-86
2022/04/08 07:13:44;;;;;;;6.43;1.30;;;;;;;18.42;50.09;100007.28;5065913;28;20120;-85
2022/04/08 07:16:14;;;;;;;4.38;1.48;;;;;;;18.60;49.81;100013.97;5050293;28;20049;-84
2022/04/08 07:18:41;;;;;;;4.53;1.35;;;;;;;18.81;48.65;100010.28;5070201;28;20052;-86
2022/04/08 07:21:09;;;;;;;4.85;1.10;;;;;;;18.76;48.90;100018.97;5062898;28;20057;-89
2022/04/08 07:23:36;;;;;;;2.28;1.00;;;;;;;18.67;48.92;100010.25;5034290;28;20132;-85
2022/04/08 07:26:04;;;;;;;5.15;0.98;;;;;;;18.64;48.78;99974.88;5032088;28;20399;-83
2022/04/08 07:28:33;;;;;;;6.05;1.30;;;;;;;19.02;48.25;100028.13;5029517;28;20132;-85
2022/04/08 07:31:00;;;;;;;4.18;1.00;;;;;;;18.74;48.53;99994.13;5047738;28;20384;-87
2022/04/08 07:33:27;;;;;;;3.30;1.50;;;;;;;18.63;48.79;99992.03;5029640;28;20457;-86
2022/04/08 07:35:54;;;;;;;4.40;1.40;;;;;;;18.64;48.44;99980.25;5029380;28;20420;-87
2022/04/08 07:38:22;;;;;;;3.50;0.95;;;;;;;19.10;48.47;100046.75;5028749;28;20084;-88
2022/04/08 07:40:49;;;;;;;2.60;1.30;;;;;;;18.89;48.83;100034.31;5029922;28;20144;-87
2022/04/08 07:43:19;;;;;;;4.10;1.08;;;;;;;18.87;48.65;100021.06;5030402;28;20057;-86
2022/04/08 07:45:46;;;;;;;3.20;1.25;;;;;;;19.16;48.16;100052.13;5030933;28;20131;-83
2022/04/08 07:48:13;;;;;;;2.10;1.30;;;;;;;19.27;47.75;100045.28;5034033;28;20053;-86
2022/04/08 07:50:40;;;;;;;4.43;1.33;;;;;;;19.22;47.53;100018.19;5046720;28;20053;-81
2022/04/08 07:53:09;;;;;;;2.22;0.88;;;;;;;19.42;47.40;100043.25;5062753;28;20045;-86
2022/04/08 07:55:37;;;;;;;4.15;1.17;;;;;;;19.42;47.32;100040.56;5034066;28;20109;-82
2022/04/08 07:58:04;;;;;;;4.82;1.20;;;;;;;19.21;47.14;100030.00;5048296;28;20044;-86
2022/04/08 08:00:32;;;;;;;3.30;1.00;;;;;;;19.42;47.27;100059.38;5047255;28;20051;-86
2022/04/08 08:02:58;;;;;;;3.58;1.02;;;;;;;19.41;47.57;100054.22;5030245;28;20539;-87
2022/04/08 08:05:26;;;;;;;3.15;1.35;;;;;;;18.97;47.46;99978.44;5029398;28;20296;-86
2022/04/08 08:07:54;;;;;;;2.97;1.52;;;;;;;19.46;47.42;100072.44;5031287;28;20056;-87
2022/04/08 08:10:37;;;;;;;5.78;1.45;;;;;;;19.45;47.51;100054.63;5031802;28;20059;-85
2022/04/08 08:13:04;;;;;;;2.65;1.17;;;;;;;19.12;47.15;99977.41;5030417;28;20055;-85
2022/04/08 08:15:32;;;;;;;4.78;1.48;;;;;;;19.17;47.16;99988.38;5030032;28;20441;-83
2022/04/08 08:18:00;;;;;;;2.53;1.00;;;;;;;19.71;46.68;100060.03;5029281;28;20102;-84
2022/04/08 08:20:26;;;;;;;8.15;1.13;;;;;;;19.06;47.15;99973.72;5047601;28;20049;-88
2022/04/08 08:22:54;;;;;;;3.03;1.25;;;;;;;18.28;47.01;99830.97;5029162;28;20059;-84
2022/04/08 08:25:21;;;;;;;2.53;1.00;;;;;;;19.20;46.95;99947.63;5030163;28;20045;-86
2022/04/08 08:27:55;;;;;;;5.15;2.08;;;;;;;19.82;46.99;100067.44;5051725;28;20288;-83
2022/04/08 08:30:23;;;;;;;3.58;1.20;;;;;;;20.00;46.49;100057.88;5033289;28;20057;-83
2022/04/08 08:32:50;;;;;;;6.55;1.20;;;;;;;19.65;46.47;100006.97;5033519;28;20115;-83
2022/04/08 08:35:18;;;;;;;1.42;1.10;;;;;;;20.13;45.97;100057.84;5049958;28;20106;-84
2022/04/08 08:37:47;;;;;;;6.93;1.60;;;;;;;20.15;45.98;100060.34;5033174;28;20052;-83
2022/04/08 08:40:15;;;;;;;6.22;1.60;;;;;;;18.65;46.03;99832.19;5032978;28;20136;-84
2022/04/08 08:42:42;;;;;;;4.00;1.00;;;;;;;19.95;46.46;100073.84;5033098;28;20085;-85
2022/04/08 08:45:11;;;;;;;2.65;1.17;;;;;;;19.85;46.32;100042.81;5050435;28;20389;-83
2022/04/08 08:47:38;;;;;;;4.63;1.08;;;;;;;19.93;46.83;100067.84;5033462;28;20049;-85
2022/04/08 08:50:09;;;;;;;4.45;1.33;;;;;;;19.90;46.75;100070.97;5027704;28;20498;-90
2022/04/08 08:52:37;;;;;;;3.97;1.48;;;;;;;19.94;46.43;100067.63;5033894;28;20100;-87
2022/04/08 08:55:06;;;;;;;9.52;1.88;;;;;;;19.94;46.28;100059.56;5014937;28;20049;-86
2022/04/08 08:57:34;;;;;;;4.82;1.50;;;;;;;19.87;46.18;100049.84;5033641;28;20140;-87
2022/04/08 09:00:18;;;;;;;5.57;1.42;;;;;;;18.64;46.04;99862.81;5036352;28;20115;-83
2022/04/08 09:02:50;;;;;;;4.80;1.40;;;;;;;20.02;46.01;100077.34;5044077;28;20053;-87
2022/04/08 09:05:24;;;;;;;2.13;1.10;;;;;;;20.05;46.25;100064.31;5012393;28;20469;-87
2022/04/08 09:08:02;;;;;;;3.78;1.40;;;;;;;19.90;46.39;100052.09;5029347;28;20454;-83
2022/04/08 09:10:31;;;;;;;4.75;1.60;;;;;;;20.18;45.50;100084.97;5012786;28;20054;-85
2022/04/08 09:13:02;;;;;;;3.58;1.27;;;;;;;20.18;45.76;100063.44;5013412;28;20128;-84
2022/04/08 09:15:29;;;;;;;3.17;1.35;;;;;;;20.09;46.02;100075.47;5012272;28;20505;-85
2022/04/08 09:18:07;;;;;;;5.57;1.58;;;;;;;20.14;46.16;100048.72;5012035;28;20050;-88
2022/04/08 09:20:45;;;;;;;5.75;1.25;;;;;;;20.30;45.68;100049.28;5013805;28;20490;-87
2022/04/08 09:23:20;;;;;;;7.95;1.45;;;;;;;20.12;45.86;100029.22;5033027;28;20052;-86
2022/04/08 09:25:55;;;;;;;4.38;1.23;;;;;;;20.12;46.24;100039.19;5034073;28;20041;-88
2022/04/08 09:28:23;;;;;;;6.32;1.50;;;;;;;20.45;45.68;100060.63;5017769;28;20106;-89
2022/04/08 09:30:55;;;;;;;4.60;1.33;;;;;;;20.46;45.47;100040.69;5033183;28;20183;-88
2022/04/08 09:33:23;;;;;;;4.07;1.40;;;;;;;20.76;44.98;100053.66;5051751;28;20080;-86
2022/04/08 09:35:53;;;;;;;2.63;1.02;;;;;;;20.84;44.18;100027.25;5035500;28;20079;-86
2022/04/08 09:38:22;;;;;;;4.35;1.23;;;;;;;21.00;43.82;100025.91;5038926;28;20113;-87
2022/04/08 09:40:50;;;;;;;3.60;1.38;;;;;;;21.10;43.90;100028.94;5041140;28;20045;-87
2022/04/08 09:43:17;;;;;;;4.63;1.23;;;;;;;21.08;43.69;100009.44;5035256;28;20129;-85
2022/04/08 09:45:46;;;;;;;1.85;0.88;;;;;;;21.22;43.47;100006.63;5034541;28;20053;-86
2022/04/08 09:48:12;;;;;;;2.75;1.30;;;;;;;21.43;43.25;100025.16;5033947;28;20106;-84
2022/04/08 09:50:40;;;;;;;4.78;1.10;;;;;;;21.63;43.11;100034.97;5038626;28;20151;-86
2022/04/08 09:53:09;;;;;;;4.65;1.27;;;;;;;21.60;43.18;100024.59;5036718;28;20057;-87
2022/04/08 09:55:37;;;;;;;4.47;1.10;;;;;;;21.53;43.35;100014.69;5032929;28;20049;-84
2022/04/08 09:58:05;;;;;;;5.85;1.30;;;;;;;21.90;43.03;100035.50;5050077;28;20087;-85
2022/04/08 10:00:32;;;;;;;8.05;1.58;;;;;;;21.84;41.98;99991.28;5048403;28;20059;-86
2022/04/08 10:02:59;;;;;;;4.75;1.02;;;;;;;21.90;42.11;100009.31;5048021;28;20053;-87
2022/04/08 10:05:26;;;;;;;3.90;1.08;;;;;;;22.29;41.77;100028.84;5029499;28;20509;-84
2022/04/08 10:07:56;;;;;;;3.47;1.30;;;;;;;21.34;41.56;99851.00;5031423;28;20051;-87
2022/04/08 10:10:26;;;;;;;1.48;0.70;;;;;;;22.53;41.42;100020.84;5031760;28;20483;-85
2022/04/08 10:12:59;;;;;;;4.35;1.17;;;;;;;22.51;41.62;100025.66;5031509;28;20114;-85
2022/04/08 10:15:40;;;;;;;3.22;1.08;;;;;;;22.68;41.41;100032.06;5032556;28;20053;-86
2022/04/08 10:18:07;;;;;;;4.50;1.77;;;;;;;22.14;41.41;99933.78;5032641;28;20378;-84
2022/04/08 10:20:36;;;;;;;6.32;1.27;;;;;;;22.75;41.38;100005.75;5029095;28;20053;-86
2022/04/08 10:23:11;;;;;;;6.25;1.52;;;;;;;22.68;41.22;99987.97;5016887;28;20053;-87
2022/04/08 10:25:40;;;;;;;3.25;1.08;;;;;;;22.90;40.76;99990.94;5041330;28;20083;-86
2022/04/08 10:28:08;;;;;;;2.13;1.08;;;;;;;22.85;41.00;99988.13;5037595;28;20785;-88
2022/04/08 10:30:43;;;;;;;6.57;1.67;;;;;;;23.12;40.67;100029.97;5036717;28;20511;-86
2022/04/08 10:33:12;;;;;;;1.98;1.25;;;;;;;23.19;40.32;100016.34;5031316;28;20077;-87
2022/04/08 10:35:39;;;;;;;3.67;0.93;;;;;;;23.32;39.87;100013.38;5030901;28;20513;-83
2022/04/08 10:38:08;;;;;;;4.55;1.10;;;;;;;23.33;40.33;100006.09;5030944;28;20053;-86
2022/04/08 10:40:37;;;;;;;3.38;1.45;;;;;;;23.41;39.75;100001.16;5048614;28;20076;-83
2022/04/08 10:43:09;;;;;;;4.07;1.02;;;;;;;23.08;40.12;99928.63;5030842;28;20165;-85
2022/04/08 10:45:38;;;;;;;5.28;1.35;;;;;;;22.18;40.05;99770.88;5030499;28;20488;-84
2022/04/08 10:48:07;;;;;;;3.25;1.30;;;;;;;23.85;38.99;100009.75;5031173;28;20095;-83
2022/04/08 10:50:34;;;;;;;3.60;2.33;;;;;;;23.74;38.86;99947.44;5048189;28;20189;-86
2022/04/08 10:53:07;;;;;;;3.83;1.40;;;;;;;24.02;38.73;99987.31;5030499;28;20049;-89
2022/04/08 10:55:54;;;;;;;4.60;1.17;;;;;;;24.10;38.43;99993.19;5010710;28;20075;-86
2022/04/08 10:58:47;;;;;;;4.25;1.10;;;;;;;24.29;38.31;99990.28;5009792;28;20059;-87
2022/04/08 11:01:26;;;;;;;4.13;1.10;;;;;;;24.36;37.84;99974.69;5009779;28;20128;-84
2022/04/08 11:04:01;;;;;;;5.43;0.95;;;;;;;24.52;37.63;99984.00;5019084;28;20049;-88
2022/04/08 11:06:36;;;;;;;5.35;1.17;;;;;;;24.23;37.42;99918.06;5046251;28;20075;-84
2022/04/08 11:09:05;;;;;;;5.35;1.52;;;;;;;24.37;37.68;99938.38;5028758;28;20071;-85
2022/04/08 11:11:41;;;;;;;3.90;1.25;;;;;;;24.67;37.36;99953.59;5102689;27;20468;-89
2022/04/08 11:14:09;;;;;;;4.13;1.48;;;;;;;24.52;36.83;99895.28;5103520;28;20039;-86
2022/04/08 11:16:40;;;;;;;3.17;0.95;;;;;;;24.87;36.31;99928.66;5084899;28;20148;-84
2022/04/08 11:19:09;;;;;;;6.35;1.60;;;;;;;24.69;36.65;99900.72;5084853;28;20358;-86
2022/04/08 11:21:36;;;;;;;3.17;0.98;;;;;;;24.66;36.41;99862.38;5096256;28;20083;-87
2022/04/08 11:24:08;;;;;;;2.08;0.88;;;;;;;25.12;36.10;99920.09;5096237;28;20051;-85
2022/04/08 11:26:50;;;;;;;4.25;1.20;;;;;;;25.66;35.66;99943.97;5084433;28;20064;-87
2022/04/08 11:29:22;;;;;;;4.03;1.10;;;;;;;25.87;35.02;99961.38;5084147;28;20520;-87
2022/04/08 11:31:52;;;;;;;4.05;1.27;;;;;;;25.89;35.22;99942.91;5084218;28;20046;-86
2022/04/08 11:34:24;;;;;;;3.45;1.27;;;;;;;26.14;34.23;99975.88;5084549;28;20052;-85
2022/04/08 11:36:54;;;;;;;3.08;1.05;;;;;;;26.08;34.25;99971.44;5084423;28;20497;-85